KSUA/SUA METAR and TAF weather

Enter ICAO airport designator
Station Type Date Time Source
KSUA METAR 2020/07/06 02:35 UTC NOAA

KSUA 060235Z AUTO 26003KT 10SM CLR 24/22 A3006 RMK AO2 LTG DSNT E AND W


Station Type Date Time Source
KSUA Decoded METAR 2020/07/06 02:35 UTC NOAA

Stuart, Witham Field Airport, FL, United States (KSUA) 27-10-54N 080-13-16W
Jul 05, 2020 - 10:35 PM EDT / 2020.07.06 0235 UTC
Wind: from the W (260 degrees) at 3 MPH (3 KT):0
Visibility: 10 mile(s):0
Sky conditions: clear
Weather: Lightning observed
Temperature: 75 F (24 C)
Dew Point: 71 F (22 C)
Relative Humidity: 88%
Pressure (altimeter): 30.06 in. Hg (1017 hPa)
ob: KSUA 060235Z AUTO 26003KT 10SM CLR 24/22 A3006 RMK AO2 LTG DSNT E AND W
cycle: 2

Station Type Date Time Source
KSUA TAF 2020/07/05 22:45 UTC NOAA

TAF
AMD KSUA 052143Z 0522/0618 11008KT P6SM VCTS SCT035CB SCT060
TEMPO 0522/0523 VRB18G25KT 3SM TSRA BKN020CB BKN050 OVC080
FM052300 VRB04KT P6SM VCSH SCT035 BKN100
FM060300 VRB04KT P6SM SCT120 BKN250
FM061500 20006KT P6SM SCT035 BKN250
FM061700 15006KT P6SM VCSH SCT035 SCT050 BKN250

Example: see airport list